Clarendon, NC (28432)

8:51 AM EDT on June 24, 2018 (GMT -0400)
Columbus County Municipal | | Change Station
Active Advisory: Heat Advisory

Elev 98 ft 34.27 °N, 78.72 °W | Updated 16 minutes ago

Clear
Clear
81 °F
Feels Like 85 °F
N
4
Wind Variable Wind from SW

Today
High -- | Low -- °F
--% Chance of Precip.
Yesterday
High -- | Low -- °F
Precip. -- in
Pressure 29.99 in
Visibility 10.0 miles
Clouds Clear
Heat Index 85 °F
Dew Point 73 °F
Humidity 76%
Rainfall 0.00 in
Snow Depth Not available.
6:04 AM 8:30 PM
Waxing Gibbous, 88% visible
METAR KCPC 241235Z AUTO 23003KT 10SM CLR 27/23 A2999 RMK AO2 T02710226
Pressure 29.99 in
Visibility 10.0 miles
Clouds Clear
Heat Index 85 °F
Dew Point 73 °F
Humidity 76%
Rainfall 0.00 in
Snow Depth Not available.
6:04 AM 8:30 PM
Waxing Gibbous, 88% visible
METAR KCPC 241235Z AUTO 23003KT 10SM CLR 27/23 A2999 RMK AO2 T02710226

Get Your Daily Forecast Email!

Thanks for signing up!

Be on the lookout for a verification email in your inbox.

You'll start receiving severe weather alerts in your inbox..

×

10-Day Weather Forecast

Almanac

Astronomy

Jun. 24, 2018 Rise Set
Actual Time
Civil Twilight
Nautical Twilight
Astronomical Twilight
Moon
Length of Visible Light
Length of Day
Tomorrow will be .
, % of the Moon is Illuminated

Today's Extremes

State Highs State Lows

Community

WunderPhotos

Category 6

Welcome to Category 6. This is the collective home for Weather Underground's featured writeups by Dr. Jeff Masters (right), Bob Henson (left), Chris Burt, and other regular contributors.

Nearby

Air Quality

  Air Quality AQ Index Pollutant
Not available.

Snow Depth

Station Depth Elevation

Earthquake Activity

City Distance Mag. Time & Date
Minimum magnitude displayed is 2.5.

Coastal Water Temperatures

Place Temperature

Stations

Nearby Weather Stations

Station Location Temp. Windchill Dew Point Humidity Wind Precip. Elev Updated Type
                   

Watches & Warnings

Heat Advisory
Issued: 3:22 AM EDT Jun. 24, 2018 – National Weather Service

... Heat advisory remains in effect from 11 am this morning to
8 PM EDT this evening...

* heat index values... up to 109 due to temperatures between 95 and
100, and dewpoints in the lower 70s.

* Timing... the most dangerous conditions are expected during the
afternoon and early evening.

* Impacts... the heat and humidity may cause heat stress during
outdoor exertion or extended exposure.

Precautionary/preparedness actions...

A heat advisory means that a period of hot temperatures is
expected. The combination of hot temperatures and high humidity
will create a situation in which heat illnesses are possible. To
reduce the risk of heat illness during outdoor work, the
occupational safety and health administration recommends
scheduling frequent rest breaks in shaded or air conditioned
environments.



Rgz